sensor_id;sensor_type;location;lat;lon;timestamp;temperature;humidity
42201;DHT22;27869;51.442;7.540;2024-01-30T00:01:30;9.00;99.90
42201;DHT22;27869;51.442;7.540;2024-01-30T00:03:59;8.90;99.90
42201;DHT22;27869;51.442;7.540;2024-01-30T00:06:25;8.90;99.90
42201;DHT22;27869;51.442;7.540;2024-01-30T00:08:52;8.90;99.90
42201;DHT22;27869;51.442;7.540;2024-01-30T00:11:19;8.90;99.90
42201;DHT22;27869;51.442;7.540;2024-01-30T00:13:46;8.90;99.90
42201;DHT22;27869;51.442;7.540;2024-01-30T00:16:20;8.90;99.90
42201;DHT22;27869;51.442;7.540;2024-01-30T00:18:47;8.90;99.90
42201;DHT22;27869;51.442;7.540;2024-01-30T00:21:15;8.90;99.90
42201;DHT22;27869;51.442;7.540;2024-01-30T00:23:42;8.90;99.90
42201;DHT22;27869;51.442;7.540;2024-01-30T00:26:09;8.80;99.90
42201;DHT22;27869;51.442;7.540;2024-01-30T00:28:37;8.80;99.90
42201;DHT22;27869;51.442;7.540;2024-01-30T00:31:04;8.80;99.90
42201;DHT22;27869;51.442;7.540;2024-01-30T00:33:31;8.80;99.90
42201;DHT22;27869;51.442;7.540;2024-01-30T00:35:58;8.80;99.90
42201;DHT22;27869;51.442;7.540;2024-01-30T00:38:26;8.80;99.90
42201;DHT22;27869;51.442;7.540;2024-01-30T00:40:53;8.80;99.90
42201;DHT22;27869;51.442;7.540;2024-01-30T00:43:19;8.80;99.90
42201;DHT22;27869;51.442;7.540;2024-01-30T00:45:47;8.70;99.90
42201;DHT22;27869;51.442;7.540;2024-01-30T00:48:13;8.70;99.90
42201;DHT22;27869;51.442;7.540;2024-01-30T00:50:40;8.70;99.90
42201;DHT22;27869;51.442;7.540;2024-01-30T00:53:07;8.70;99.90
42201;DHT22;27869;51.442;7.540;2024-01-30T00:55:35;8.70;99.90
42201;DHT22;27869;51.442;7.540;2024-01-30T00:58:03;8.70;99.90
42201;DHT22;27869;51.442;7.540;2024-01-30T01:00:30;8.70;99.90
42201;DHT22;27869;51.442;7.540;2024-01-30T01:02:57;8.70;99.90
42201;DHT22;27869;51.442;7.540;2024-01-30T01:05:24;8.70;99.90
42201;DHT22;27869;51.442;7.540;2024-01-30T01:07:51;8.70;99.90
42201;DHT22;27869;51.442;7.540;2024-01-30T01:10:18;8.60;99.90
42201;DHT22;27869;51.442;7.540;2024-01-30T01:12:48;8.60;99.90
42201;DHT22;27869;51.442;7.540;2024-01-30T01:15:15;8.60;99.90
42201;DHT22;27869;51.442;7.540;2024-01-30T01:17:42;8.60;99.90
42201;DHT22;27869;51.442;7.540;2024-01-30T01:20:09;8.60;99.90
42201;DHT22;27869;51.442;7.540;2024-01-30T01:22:37;8.50;99.90
42201;DHT22;27869;51.442;7.540;2024-01-30T01:25:06;8.50;99.90
42201;DHT22;27869;51.442;7.540;2024-01-30T01:27:34;8.50;99.90
42201;DHT22;27869;51.442;7.540;2024-01-30T01:30:08;8.50;99.90
42201;DHT22;27869;51.442;7.540;2024-01-30T01:32:37;8.50;99.90
42201;DHT22;27869;51.442;7.540;2024-01-30T01:35:04;8.50;99.90
42201;DHT22;27869;51.442;7.540;2024-01-30T01:37:32;8.50;99.90
42201;DHT22;27869;51.442;7.540;2024-01-30T01:39:59;8.40;99.90
42201;DHT22;27869;51.442;7.540;2024-01-30T01:42:26;8.40;99.90
42201;DHT22;27869;51.442;7.540;2024-01-30T01:44:53;8.40;99.90
42201;DHT22;27869;51.442;7.540;2024-01-30T01:47:21;8.40;99.90
42201;DHT22;27869;51.442;7.540;2024-01-30T01:49:48;8.40;99.90
42201;DHT22;27869;51.442;7.540;2024-01-30T01:52:15;8.40;99.90
42201;DHT22;27869;51.442;7.540;2024-01-30T01:54:43;8.40;99.90
42201;DHT22;27869;51.442;7.540;2024-01-30T01:57:10;8.40;99.90
42201;DHT22;27869;51.442;7.540;2024-01-30T01:59:37;8.40;99.90
42201;DHT22;27869;51.442;7.540;2024-01-30T02:02:04;8.40;99.90
42201;DHT22;27869;51.442;7.540;2024-01-30T02:04:34;8.40;99.90
42201;DHT22;27869;51.442;7.540;2024-01-30T02:07:01;8.40;99.90
42201;DHT22;27869;51.442;7.540;2024-01-30T02:09:28;8.40;99.90
42201;DHT22;27869;51.442;7.540;2024-01-30T02:11:55;8.40;99.90
42201;DHT22;27869;51.442;7.540;2024-01-30T02:14:22;8.40;99.90
42201;DHT22;27869;51.442;7.540;2024-01-30T02:16:49;8.30;99.90
42201;DHT22;27869;51.442;7.540;2024-01-30T02:19:16;8.30;99.90
42201;DHT22;27869;51.442;7.540;2024-01-30T02:21:44;8.30;99.90
42201;DHT22;27869;51.442;7.540;2024-01-30T02:24:11;8.30;99.90
42201;DHT22;27869;51.442;7.540;2024-01-30T02:26:38;8.30;99.90
42201;DHT22;27869;51.442;7.540;2024-01-30T02:29:05;8.30;99.90
42201;DHT22;27869;51.442;7.540;2024-01-30T02:31:32;8.30;99.90
42201;DHT22;27869;51.442;7.540;2024-01-30T02:33:59;8.30;99.90
42201;DHT22;27869;51.442;7.540;2024-01-30T02:36:25;8.30;99.90
42201;DHT22;27869;51.442;7.540;2024-01-30T02:38:54;8.30;99.90
42201;DHT22;27869;51.442;7.540;2024-01-30T02:41:20;8.30;99.90
42201;DHT22;27869;51.442;7.540;2024-01-30T02:43:47;8.30;99.90
42201;DHT22;27869;51.442;7.540;2024-01-30T02:46:14;8.30;99.90
42201;DHT22;27869;51.442;7.540;2024-01-30T02:48:41;8.20;99.90
42201;DHT22;27869;51.442;7.540;2024-01-30T02:51:08;8.20;99.90
42201;DHT22;27869;51.442;7.540;2024-01-30T02:53:34;8.20;99.90
42201;DHT22;27869;51.442;7.540;2024-01-30T02:56:04;8.20;99.90
42201;DHT22;27869;51.442;7.540;2024-01-30T02:58:31;8.20;99.90
42201;DHT22;27869;51.442;7.540;2024-01-30T03:00:58;8.10;99.90
42201;DHT22;27869;51.442;7.540;2024-01-30T03:03:25;8.20;99.90
42201;DHT22;27869;51.442;7.540;2024-01-30T03:05:51;8.10;99.90
42201;DHT22;27869;51.442;7.540;2024-01-30T03:08:18;8.10;99.90
42201;DHT22;27869;51.442;7.540;2024-01-30T03:10:45;8.10;99.90
42201;DHT22;27869;51.442;7.540;2024-01-30T03:13:13;8.10;99.90
42201;DHT22;27869;51.442;7.540;2024-01-30T03:15:40;8.10;99.90
42201;DHT22;27869;51.442;7.540;2024-01-30T03:18:07;8.10;99.90
42201;DHT22;27869;51.442;7.540;2024-01-30T03:20:34;8.10;99.90
42201;DHT22;27869;51.442;7.540;2024-01-30T03:23:01;8.10;99.90
42201;DHT22;27869;51.442;7.540;2024-01-30T03:25:28;8.10;99.90
42201;DHT22;27869;51.442;7.540;2024-01-30T03:27:55;8.10;99.90
42201;DHT22;27869;51.442;7.540;2024-01-30T03:30:23;8.00;99.90
42201;DHT22;27869;51.442;7.540;2024-01-30T03:32:50;8.00;99.90
42201;DHT22;27869;51.442;7.540;2024-01-30T03:35:18;8.00;99.90
42201;DHT22;27869;51.442;7.540;2024-01-30T03:37:45;8.00;99.90
42201;DHT22;27869;51.442;7.540;2024-01-30T03:40:12;8.00;99.90
42201;DHT22;27869;51.442;7.540;2024-01-30T03:42:39;8.00;99.90
42201;DHT22;27869;51.442;7.540;2024-01-30T03:45:07;8.00;99.90
42201;DHT22;27869;51.442;7.540;2024-01-30T03:47:35;8.00;99.90
42201;DHT22;27869;51.442;7.540;2024-01-30T03:50:02;8.00;99.90
42201;DHT22;27869;51.442;7.540;2024-01-30T03:52:30;7.90;99.90
42201;DHT22;27869;51.442;7.540;2024-01-30T03:54:57;7.90;99.90
42201;DHT22;27869;51.442;7.540;2024-01-30T03:57:24;7.80;99.90
42201;DHT22;27869;51.442;7.540;2024-01-30T03:59:50;7.80;99.90
42201;DHT22;27869;51.442;7.540;2024-01-30T04:02:17;7.80;99.90
42201;DHT22;27869;51.442;7.540;2024-01-30T04:04:46;7.80;99.90
42201;DHT22;27869;51.442;7.540;2024-01-30T04:07:12;7.80;99.90
42201;DHT22;27869;51.442;7.540;2024-01-30T04:09:39;7.80;99.90
42201;DHT22;27869;51.442;7.540;2024-01-30T04:12:06;7.80;99.90
42201;DHT22;27869;51.442;7.540;2024-01-30T04:14:33;7.80;99.90
42201;DHT22;27869;51.442;7.540;2024-01-30T04:17:01;7.80;99.90
42201;DHT22;27869;51.442;7.540;2024-01-30T04:19:27;7.90;99.90
42201;DHT22;27869;51.442;7.540;2024-01-30T04:21:56;7.90;99.90
42201;DHT22;27869;51.442;7.540;2024-01-30T04:24:22;7.90;99.90
42201;DHT22;27869;51.442;7.540;2024-01-30T04:26:49;7.90;99.90
42201;DHT22;27869;51.442;7.540;2024-01-30T04:29:16;7.90;99.90
42201;DHT22;27869;51.442;7.540;2024-01-30T04:31:43;8.00;99.90
42201;DHT22;27869;51.442;7.540;2024-01-30T04:34:10;8.00;99.90
42201;DHT22;27869;51.442;7.540;2024-01-30T04:36:37;8.00;99.90
42201;DHT22;27869;51.442;7.540;2024-01-30T04:39:05;8.00;99.90
42201;DHT22;27869;51.442;7.540;2024-01-30T04:41:32;8.00;99.90
42201;DHT22;27869;51.442;7.540;2024-01-30T04:43:59;8.10;99.90
42201;DHT22;27869;51.442;7.540;2024-01-30T04:46:26;8.10;99.90
42201;DHT22;27869;51.442;7.540;2024-01-30T04:48:53;8.10;99.90
42201;DHT22;27869;51.442;7.540;2024-01-30T04:51:20;8.10;99.90
42201;DHT22;27869;51.442;7.540;2024-01-30T04:53:47;8.10;99.90
42201;DHT22;27869;51.442;7.540;2024-01-30T04:56:15;8.10;99.90
42201;DHT22;27869;51.442;7.540;2024-01-30T04:58:42;8.10;99.90
42201;DHT22;27869;51.442;7.540;2024-01-30T05:01:09;8.10;99.90
42201;DHT22;27869;51.442;7.540;2024-01-30T05:03:36;8.10;99.90
42201;DHT22;27869;51.442;7.540;2024-01-30T05:06:03;8.10;99.90
42201;DHT22;27869;51.442;7.540;2024-01-30T05:08:30;8.10;99.90
42201;DHT22;27869;51.442;7.540;2024-01-30T05:11:00;8.10;99.90
42201;DHT22;27869;51.442;7.540;2024-01-30T05:13:28;8.10;99.90
42201;DHT22;27869;51.442;7.540;2024-01-30T05:15:55;8.10;99.90
42201;DHT22;27869;51.442;7.540;2024-01-30T05:18:22;8.10;99.90
42201;DHT22;27869;51.442;7.540;2024-01-30T05:20:50;8.10;99.90
42201;DHT22;27869;51.442;7.540;2024-01-30T05:23:17;8.10;99.90
42201;DHT22;27869;51.442;7.540;2024-01-30T05:25:43;8.10;99.90
42201;DHT22;27869;51.442;7.540;2024-01-30T05:28:10;8.10;99.90
42201;DHT22;27869;51.442;7.540;2024-01-30T05:30:39;8.10;99.90
42201;DHT22;27869;51.442;7.540;2024-01-30T05:33:05;8.10;99.90
42201;DHT22;27869;51.442;7.540;2024-01-30T05:35:32;8.10;99.90
42201;DHT22;27869;51.442;7.540;2024-01-30T05:37:59;8.10;99.90
42201;DHT22;27869;51.442;7.540;2024-01-30T05:40:26;8.10;99.90
42201;DHT22;27869;51.442;7.540;2024-01-30T05:42:53;8.10;99.90
42201;DHT22;27869;51.442;7.540;2024-01-30T05:45:20;8.10;99.90
42201;DHT22;27869;51.442;7.540;2024-01-30T05:47:50;8.10;99.90
42201;DHT22;27869;51.442;7.540;2024-01-30T05:50:17;8.10;99.90
42201;DHT22;27869;51.442;7.540;2024-01-30T05:52:43;8.10;99.90
42201;DHT22;27869;51.442;7.540;2024-01-30T05:55:11;8.10;99.90
42201;DHT22;27869;51.442;7.540;2024-01-30T05:57:38;8.10;99.90
42201;DHT22;27869;51.442;7.540;2024-01-30T06:00:06;8.10;99.90
42201;DHT22;27869;51.442;7.540;2024-01-30T06:02:33;8.10;99.90
42201;DHT22;27869;51.442;7.540;2024-01-30T06:05:01;8.10;99.90
42201;DHT22;27869;51.442;7.540;2024-01-30T06:07:28;8.10;99.90
42201;DHT22;27869;51.442;7.540;2024-01-30T06:09:55;8.10;99.90
42201;DHT22;27869;51.442;7.540;2024-01-30T06:12:23;8.10;99.90
42201;DHT22;27869;51.442;7.540;2024-01-30T06:14:50;8.10;99.90
42201;DHT22;27869;51.442;7.540;2024-01-30T06:17:17;8.10;99.90
42201;DHT22;27869;51.442;7.540;2024-01-30T06:19:44;8.10;99.90
42201;DHT22;27869;51.442;7.540;2024-01-30T06:22:12;8.10;99.90
42201;DHT22;27869;51.442;7.540;2024-01-30T06:24:39;8.10;99.90
42201;DHT22;27869;51.442;7.540;2024-01-30T06:27:06;8.10;99.90
42201;DHT22;27869;51.442;7.540;2024-01-30T06:29:32;8.10;99.90
42201;DHT22;27869;51.442;7.540;2024-01-30T06:31:59;8.10;99.90
42201;DHT22;27869;51.442;7.540;2024-01-30T06:34:26;8.10;99.90
42201;DHT22;27869;51.442;7.540;2024-01-30T06:36:53;8.10;99.90
42201;DHT22;27869;51.442;7.540;2024-01-30T06:39:21;8.10;99.90
42201;DHT22;27869;51.442;7.540;2024-01-30T06:41:48;8.10;99.90
42201;DHT22;27869;51.442;7.540;2024-01-30T06:44:15;8.20;99.90
42201;DHT22;27869;51.442;7.540;2024-01-30T06:46:42;8.20;99.90
42201;DHT22;27869;51.442;7.540;2024-01-30T06:49:09;8.10;99.90
42201;DHT22;27869;51.442;7.540;2024-01-30T06:51:36;8.20;99.90
42201;DHT22;27869;51.442;7.540;2024-01-30T06:54:03;8.20;99.90
42201;DHT22;27869;51.442;7.540;2024-01-30T06:56:31;8.20;99.90
42201;DHT22;27869;51.442;7.540;2024-01-30T06:58:58;8.20;99.90
42201;DHT22;27869;51.442;7.540;2024-01-30T07:01:27;8.20;99.90
42201;DHT22;27869;51.442;7.540;2024-01-30T07:03:55;8.20;99.90
42201;DHT22;27869;51.442;7.540;2024-01-30T07:06:22;8.20;99.90
42201;DHT22;27869;51.442;7.540;2024-01-30T07:08:49;8.20;99.90
42201;DHT22;27869;51.442;7.540;2024-01-30T07:11:18;8.20;99.90
42201;DHT22;27869;51.442;7.540;2024-01-30T07:13:48;8.20;99.90
42201;DHT22;27869;51.442;7.540;2024-01-30T07:16:15;8.20;99.90
42201;DHT22;27869;51.442;7.540;2024-01-30T07:18:43;8.20;99.90
42201;DHT22;27869;51.442;7.540;2024-01-30T07:21:10;8.20;99.90
42201;DHT22;27869;51.442;7.540;2024-01-30T07:23:37;8.30;99.90
42201;DHT22;27869;51.442;7.540;2024-01-30T07:26:04;8.30;99.90
42201;DHT22;27869;51.442;7.540;2024-01-30T07:28:32;8.30;99.90
42201;DHT22;27869;51.442;7.540;2024-01-30T07:31:00;8.30;99.90
42201;DHT22;27869;51.442;7.540;2024-01-30T07:33:27;8.40;99.90
42201;DHT22;27869;51.442;7.540;2024-01-30T07:35:54;8.30;99.90
42201;DHT22;27869;51.442;7.540;2024-01-30T07:38:21;8.40;99.90
42201;DHT22;27869;51.442;7.540;2024-01-30T07:40:48;8.40;99.90
42201;DHT22;27869;51.442;7.540;2024-01-30T07:43:14;8.40;99.90
42201;DHT22;27869;51.442;7.540;2024-01-30T07:45:41;8.40;99.90
42201;DHT22;27869;51.442;7.540;2024-01-30T07:48:10;8.40;99.90
42201;DHT22;27869;51.442;7.540;2024-01-30T07:50:37;8.50;99.90
42201;DHT22;27869;51.442;7.540;2024-01-30T07:53:04;8.40;99.90
42201;DHT22;27869;51.442;7.540;2024-01-30T07:55:31;8.50;99.90
42201;DHT22;27869;51.442;7.540;2024-01-30T07:57:58;8.50;99.90
42201;DHT22;27869;51.442;7.540;2024-01-30T08:00:25;8.50;99.90
42201;DHT22;27869;51.442;7.540;2024-01-30T08:02:53;8.50;99.90
42201;DHT22;27869;51.442;7.540;2024-01-30T08:05:22;8.60;99.90
42201;DHT22;27869;51.442;7.540;2024-01-30T08:07:50;8.60;99.90
42201;DHT22;27869;51.442;7.540;2024-01-30T08:10:17;8.60;99.90
42201;DHT22;27869;51.442;7.540;2024-01-30T08:12:44;8.60;99.90
42201;DHT22;27869;51.442;7.540;2024-01-30T08:15:12;8.70;99.90
42201;DHT22;27869;51.442;7.540;2024-01-30T08:17:39;8.70;99.90
42201;DHT22;27869;51.442;7.540;2024-01-30T08:20:07;8.70;99.90
42201;DHT22;27869;51.442;7.540;2024-01-30T08:22:38;8.70;99.90
42201;DHT22;27869;51.442;7.540;2024-01-30T08:25:06;8.70;99.90
42201;DHT22;27869;51.442;7.540;2024-01-30T08:27:33;8.70;99.90
42201;DHT22;27869;51.442;7.540;2024-01-30T08:30:01;8.80;99.90
42201;DHT22;27869;51.442;7.540;2024-01-30T08:32:28;8.80;99.90
42201;DHT22;27869;51.442;7.540;2024-01-30T08:34:55;8.80;99.90
42201;DHT22;27869;51.442;7.540;2024-01-30T08:37:22;8.90;99.90
42201;DHT22;27869;51.442;7.540;2024-01-30T08:39:50;8.90;99.90
42201;DHT22;27869;51.442;7.540;2024-01-30T08:42:17;8.90;99.90
42201;DHT22;27869;51.442;7.540;2024-01-30T08:44:48;9.00;99.90
42201;DHT22;27869;51.442;7.540;2024-01-30T08:47:15;9.00;99.90
42201;DHT22;27869;51.442;7.540;2024-01-30T08:49:43;9.00;99.90
42201;DHT22;27869;51.442;7.540;2024-01-30T08:52:10;9.00;99.90
42201;DHT22;27869;51.442;7.540;2024-01-30T08:54:36;9.00;99.90
42201;DHT22;27869;51.442;7.540;2024-01-30T08:57:05;9.10;99.90
42201;DHT22;27869;51.442;7.540;2024-01-30T08:59:32;9.10;99.90
42201;DHT22;27869;51.442;7.540;2024-01-30T09:01:59;9.20;99.90
42201;DHT22;27869;51.442;7.540;2024-01-30T09:04:26;9.20;99.90
42201;DHT22;27869;51.442;7.540;2024-01-30T09:06:53;9.30;99.90
42201;DHT22;27869;51.442;7.540;2024-01-30T09:09:20;9.30;99.90
42201;DHT22;27869;51.442;7.540;2024-01-30T09:11:47;9.30;99.90
42201;DHT22;27869;51.442;7.540;2024-01-30T09:14:15;9.30;99.90
42201;DHT22;27869;51.442;7.540;2024-01-30T09:16:42;9.40;99.90
42201;DHT22;27869;51.442;7.540;2024-01-30T09:19:09;9.40;99.90
42201;DHT22;27869;51.442;7.540;2024-01-30T09:21:36;9.40;99.90
42201;DHT22;27869;51.442;7.540;2024-01-30T09:24:03;9.50;99.90
42201;DHT22;27869;51.442;7.540;2024-01-30T09:26:30;9.50;99.90
42201;DHT22;27869;51.442;7.540;2024-01-30T09:28:57;9.50;99.90
42201;DHT22;27869;51.442;7.540;2024-01-30T09:31:25;9.50;99.90
42201;DHT22;27869;51.442;7.540;2024-01-30T09:33:52;9.60;99.90
42201;DHT22;27869;51.442;7.540;2024-01-30T09:36:19;9.60;99.90
42201;DHT22;27869;51.442;7.540;2024-01-30T09:38:46;9.60;99.90
42201;DHT22;27869;51.442;7.540;2024-01-30T09:41:16;9.70;99.90
42201;DHT22;27869;51.442;7.540;2024-01-30T09:43:47;9.70;99.90
42201;DHT22;27869;51.442;7.540;2024-01-30T09:46:16;9.80;99.90
42201;DHT22;27869;51.442;7.540;2024-01-30T09:48:46;9.80;99.90
42201;DHT22;27869;51.442;7.540;2024-01-30T09:51:15;9.80;99.90
42201;DHT22;27869;51.442;7.540;2024-01-30T09:53:42;9.80;99.90
42201;DHT22;27869;51.442;7.540;2024-01-30T09:56:10;9.90;99.90
42201;DHT22;27869;51.442;7.540;2024-01-30T09:58:38;10.00;99.90
42201;DHT22;27869;51.442;7.540;2024-01-30T10:01:06;10.00;99.90
42201;DHT22;27869;51.442;7.540;2024-01-30T10:03:33;10.00;99.90
42201;DHT22;27869;51.442;7.540;2024-01-30T10:06:01;10.10;99.90
42201;DHT22;27869;51.442;7.540;2024-01-30T10:08:28;10.10;99.90
42201;DHT22;27869;51.442;7.540;2024-01-30T10:10:55;10.20;99.90
42201;DHT22;27869;51.442;7.540;2024-01-30T10:13:23;10.20;99.90
42201;DHT22;27869;51.442;7.540;2024-01-30T10:15:50;10.30;99.90
42201;DHT22;27869;51.442;7.540;2024-01-30T10:18:17;10.30;99.90
42201;DHT22;27869;51.442;7.540;2024-01-30T10:20:45;10.40;99.90
42201;DHT22;27869;51.442;7.540;2024-01-30T10:23:14;10.40;99.90
42201;DHT22;27869;51.442;7.540;2024-01-30T10:25:41;10.50;99.90
42201;DHT22;27869;51.442;7.540;2024-01-30T10:28:08;10.50;99.90
42201;DHT22;27869;51.442;7.540;2024-01-30T10:30:35;10.60;99.90
42201;DHT22;27869;51.442;7.540;2024-01-30T10:33:02;10.60;99.90
42201;DHT22;27869;51.442;7.540;2024-01-30T10:35:29;10.60;99.90
42201;DHT22;27869;51.442;7.540;2024-01-30T10:37:57;10.70;99.90
42201;DHT22;27869;51.442;7.540;2024-01-30T10:40:28;10.80;99.90
42201;DHT22;27869;51.442;7.540;2024-01-30T10:42:55;10.80;99.90
42201;DHT22;27869;51.442;7.540;2024-01-30T10:45:23;10.80;99.90
42201;DHT22;27869;51.442;7.540;2024-01-30T10:47:55;10.90;99.90
42201;DHT22;27869;51.442;7.540;2024-01-30T10:50:24;10.90;99.90
42201;DHT22;27869;51.442;7.540;2024-01-30T10:52:52;11.00;99.90
42201;DHT22;27869;51.442;7.540;2024-01-30T10:55:21;11.00;99.90
42201;DHT22;27869;51.442;7.540;2024-01-30T10:57:50;11.10;99.90
42201;DHT22;27869;51.442;7.540;2024-01-30T11:00:19;11.10;99.90
42201;DHT22;27869;51.442;7.540;2024-01-30T11:02:49;11.10;99.90
42201;DHT22;27869;51.442;7.540;2024-01-30T11:05:23;11.20;99.90
42201;DHT22;27869;51.442;7.540;2024-01-30T11:07:51;11.20;99.90
42201;DHT22;27869;51.442;7.540;2024-01-30T11:10:18;11.30;99.90
42201;DHT22;27869;51.442;7.540;2024-01-30T11:12:46;11.30;99.90
42201;DHT22;27869;51.442;7.540;2024-01-30T11:15:16;11.40;99.90
42201;DHT22;27869;51.442;7.540;2024-01-30T11:17:44;11.50;99.90
42201;DHT22;27869;51.442;7.540;2024-01-30T11:20:12;11.50;99.90
42201;DHT22;27869;51.442;7.540;2024-01-30T11:22:42;11.60;99.90
42201;DHT22;27869;51.442;7.540;2024-01-30T11:25:12;11.70;99.90
42201;DHT22;27869;51.442;7.540;2024-01-30T11:27:42;11.80;99.90
42201;DHT22;27869;51.442;7.540;2024-01-30T11:30:10;11.90;99.90
42201;DHT22;27869;51.442;7.540;2024-01-30T11:32:38;12.00;99.90
42201;DHT22;27869;51.442;7.540;2024-01-30T11:35:05;12.00;99.90
42201;DHT22;27869;51.442;7.540;2024-01-30T11:37:37;12.10;99.90
42201;DHT22;27869;51.442;7.540;2024-01-30T11:40:05;12.10;99.90
42201;DHT22;27869;51.442;7.540;2024-01-30T11:42:32;12.10;99.90
42201;DHT22;27869;51.442;7.540;2024-01-30T11:45:01;12.20;99.90
42201;DHT22;27869;51.442;7.540;2024-01-30T11:47:29;12.20;99.90
42201;DHT22;27869;51.442;7.540;2024-01-30T11:49:57;12.20;99.90
42201;DHT22;27869;51.442;7.540;2024-01-30T11:52:24;12.30;99.90
42201;DHT22;27869;51.442;7.540;2024-01-30T11:54:51;12.30;99.90
42201;DHT22;27869;51.442;7.540;2024-01-30T11:57:18;12.40;99.90
42201;DHT22;27869;51.442;7.540;2024-01-30T11:59:45;12.30;99.90
42201;DHT22;27869;51.442;7.540;2024-01-30T12:02:15;12.30;99.90
42201;DHT22;27869;51.442;7.540;2024-01-30T12:04:43;12.40;99.90
42201;DHT22;27869;51.442;7.540;2024-01-30T12:07:11;12.40;99.90
42201;DHT22;27869;51.442;7.540;2024-01-30T12:09:41;12.40;99.90
42201;DHT22;27869;51.442;7.540;2024-01-30T12:12:08;12.40;99.90
42201;DHT22;27869;51.442;7.540;2024-01-30T12:14:38;12.40;99.90
42201;DHT22;27869;51.442;7.540;2024-01-30T12:17:05;12.40;99.90
42201;DHT22;27869;51.442;7.540;2024-01-30T12:19:33;12.50;99.90
42201;DHT22;27869;51.442;7.540;2024-01-30T12:22:00;12.50;99.90
42201;DHT22;27869;51.442;7.540;2024-01-30T12:24:29;12.50;99.90
42201;DHT22;27869;51.442;7.540;2024-01-30T12:26:57;12.50;99.90
42201;DHT22;27869;51.442;7.540;2024-01-30T12:29:25;12.50;99.90
42201;DHT22;27869;51.442;7.540;2024-01-30T12:31:53;12.50;99.90
42201;DHT22;27869;51.442;7.540;2024-01-30T12:34:20;12.50;99.90
42201;DHT22;27869;51.442;7.540;2024-01-30T12:36:47;12.50;99.90
42201;DHT22;27869;51.442;7.540;2024-01-30T12:39:15;12.50;99.90
42201;DHT22;27869;51.442;7.540;2024-01-30T12:41:43;12.50;99.90
42201;DHT22;27869;51.442;7.540;2024-01-30T12:44:13;12.50;99.90
42201;DHT22;27869;51.442;7.540;2024-01-30T12:46:40;12.50;99.90
42201;DHT22;27869;51.442;7.540;2024-01-30T12:49:07;12.50;99.90
42201;DHT22;27869;51.442;7.540;2024-01-30T12:51:34;12.50;99.90
42201;DHT22;27869;51.442;7.540;2024-01-30T12:54:05;12.40;99.90
42201;DHT22;27869;51.442;7.540;2024-01-30T12:56:32;12.40;99.90
42201;DHT22;27869;51.442;7.540;2024-01-30T12:59:00;12.40;99.90
42201;DHT22;27869;51.442;7.540;2024-01-30T13:01:28;12.40;99.90
42201;DHT22;27869;51.442;7.540;2024-01-30T13:03:55;12.40;99.90
42201;DHT22;27869;51.442;7.540;2024-01-30T13:06:24;12.40;99.90
42201;DHT22;27869;51.442;7.540;2024-01-30T13:08:51;12.40;99.90
42201;DHT22;27869;51.442;7.540;2024-01-30T13:11:18;12.40;99.90
42201;DHT22;27869;51.442;7.540;2024-01-30T13:13:44;12.30;99.90
42201;DHT22;27869;51.442;7.540;2024-01-30T13:16:13;12.40;99.90
42201;DHT22;27869;51.442;7.540;2024-01-30T13:18:40;12.30;99.90
42201;DHT22;27869;51.442;7.540;2024-01-30T13:21:07;12.30;99.90
42201;DHT22;27869;51.442;7.540;2024-01-30T13:23:34;12.30;99.90
42201;DHT22;27869;51.442;7.540;2024-01-30T13:26:01;12.30;99.90
42201;DHT22;27869;51.442;7.540;2024-01-30T13:28:28;12.20;99.90
42201;DHT22;27869;51.442;7.540;2024-01-30T13:30:55;12.20;99.90
42201;DHT22;27869;51.442;7.540;2024-01-30T13:33:26;12.20;99.90
42201;DHT22;27869;51.442;7.540;2024-01-30T13:35:53;12.30;99.90
42201;DHT22;27869;51.442;7.540;2024-01-30T13:38:20;12.20;99.90
42201;DHT22;27869;51.442;7.540;2024-01-30T13:40:47;12.20;99.90
42201;DHT22;27869;51.442;7.540;2024-01-30T13:43:14;12.20;99.90
42201;DHT22;27869;51.442;7.540;2024-01-30T13:45:42;12.20;99.90
42201;DHT22;27869;51.442;7.540;2024-01-30T13:48:09;12.20;99.90
42201;DHT22;27869;51.442;7.540;2024-01-30T13:50:37;12.20;99.90
42201;DHT22;27869;51.442;7.540;2024-01-30T13:53:04;12.10;99.90
42201;DHT22;27869;51.442;7.540;2024-01-30T13:55:31;12.20;99.90
42201;DHT22;27869;51.442;7.540;2024-01-30T13:57:58;12.10;99.90
42201;DHT22;27869;51.442;7.540;2024-01-30T14:00:27;12.10;99.90
42201;DHT22;27869;51.442;7.540;2024-01-30T14:02:54;12.10;99.90
42201;DHT22;27869;51.442;7.540;2024-01-30T14:05:22;12.10;99.90
42201;DHT22;27869;51.442;7.540;2024-01-30T14:07:50;12.10;99.90
42201;DHT22;27869;51.442;7.540;2024-01-30T14:10:17;12.10;99.90
42201;DHT22;27869;51.442;7.540;2024-01-30T14:12:44;12.00;99.90
42201;DHT22;27869;51.442;7.540;2024-01-30T14:15:11;12.10;99.90
42201;DHT22;27869;51.442;7.540;2024-01-30T14:17:40;12.00;99.90
42201;DHT22;27869;51.442;7.540;2024-01-30T14:20:08;12.00;99.90
42201;DHT22;27869;51.442;7.540;2024-01-30T14:22:36;11.90;99.90
42201;DHT22;27869;51.442;7.540;2024-01-30T14:25:05;12.00;99.90
42201;DHT22;27869;51.442;7.540;2024-01-30T14:27:33;11.90;99.90
42201;DHT22;27869;51.442;7.540;2024-01-30T14:30:00;11.90;99.90
42201;DHT22;27869;51.442;7.540;2024-01-30T14:32:27;11.90;99.90
42201;DHT22;27869;51.442;7.540;2024-01-30T14:34:54;11.90;99.90
42201;DHT22;27869;51.442;7.540;2024-01-30T14:37:21;11.90;99.90
42201;DHT22;27869;51.442;7.540;2024-01-30T14:39:49;11.90;99.90
42201;DHT22;27869;51.442;7.540;2024-01-30T14:42:18;11.90;99.90
42201;DHT22;27869;51.442;7.540;2024-01-30T14:44:45;11.80;99.90
42201;DHT22;27869;51.442;7.540;2024-01-30T14:47:12;11.90;99.90
42201;DHT22;27869;51.442;7.540;2024-01-30T14:49:40;11.80;99.90
42201;DHT22;27869;51.442;7.540;2024-01-30T14:52:07;11.80;99.90
42201;DHT22;27869;51.442;7.540;2024-01-30T14:54:36;11.90;99.90
42201;DHT22;27869;51.442;7.540;2024-01-30T14:57:04;11.90;99.90
42201;DHT22;27869;51.442;7.540;2024-01-30T14:59:32;11.90;99.90
42201;DHT22;27869;51.442;7.540;2024-01-30T15:01:59;11.90;99.90
42201;DHT22;27869;51.442;7.540;2024-01-30T15:04:26;11.90;99.90
42201;DHT22;27869;51.442;7.540;2024-01-30T15:06:53;11.90;99.90
42201;DHT22;27869;51.442;7.540;2024-01-30T15:09:20;11.90;99.90
42201;DHT22;27869;51.442;7.540;2024-01-30T15:11:48;11.90;99.90
42201;DHT22;27869;51.442;7.540;2024-01-30T15:14:15;11.90;99.90
42201;DHT22;27869;51.442;7.540;2024-01-30T15:16:44;11.90;99.90
42201;DHT22;27869;51.442;7.540;2024-01-30T15:19:11;11.90;99.90
42201;DHT22;27869;51.442;7.540;2024-01-30T15:21:38;11.90;99.90
42201;DHT22;27869;51.442;7.540;2024-01-30T15:24:05;11.90;99.90
42201;DHT22;27869;51.442;7.540;2024-01-30T15:26:32;11.90;99.90
42201;DHT22;27869;51.442;7.540;2024-01-30T15:28:59;11.90;99.90
42201;DHT22;27869;51.442;7.540;2024-01-30T15:31:26;11.90;99.90
42201;DHT22;27869;51.442;7.540;2024-01-30T15:33:55;11.90;99.90
42201;DHT22;27869;51.442;7.540;2024-01-30T15:36:22;11.90;99.90
42201;DHT22;27869;51.442;7.540;2024-01-30T15:38:49;11.90;99.90
42201;DHT22;27869;51.442;7.540;2024-01-30T15:41:16;11.80;99.90